sensor_id;sensor_type;location;lat;lon;timestamp;temperature;humidity
19561;DHT22;9927;47.792;10.616;2022-08-19T03:01:31;18.00;99.90
19561;DHT22;9927;47.792;10.616;2022-08-19T03:04:02;18.00;99.90
19561;DHT22;9927;47.792;10.616;2022-08-19T03:06:31;18.00;99.90
19561;DHT22;9927;47.792;10.616;2022-08-19T03:09:00;18.10;99.90
19561;DHT22;9927;47.792;10.616;2022-08-19T03:11:30;18.10;99.90
19561;DHT22;9927;47.792;10.616;2022-08-19T03:13:58;18.10;99.90
19561;DHT22;9927;47.792;10.616;2022-08-19T03:16:29;18.10;99.90
19561;DHT22;9927;47.792;10.616;2022-08-19T03:19:00;18.00;99.90
19561;DHT22;9927;47.792;10.616;2022-08-19T03:21:30;17.80;99.90
19561;DHT22;9927;47.792;10.616;2022-08-19T03:24:03;17.70;99.90
19561;DHT22;9927;47.792;10.616;2022-08-19T03:26:31;17.80;99.90
19561;DHT22;9927;47.792;10.616;2022-08-19T03:29:03;17.80;99.90
19561;DHT22;9927;47.792;10.616;2022-08-19T03:31:31;17.80;99.90
19561;DHT22;9927;47.792;10.616;2022-08-19T03:34:17;17.90;99.90
19561;DHT22;9927;47.792;10.616;2022-08-19T03:36:45;17.90;99.90
19561;DHT22;9927;47.792;10.616;2022-08-19T03:39:13;17.90;99.90
19561;DHT22;9927;47.792;10.616;2022-08-19T03:41:43;17.80;99.90
19561;DHT22;9927;47.792;10.616;2022-08-19T03:44:15;17.80;99.90
19561;DHT22;9927;47.792;10.616;2022-08-19T03:46:47;17.80;99.90
19561;DHT22;9927;47.792;10.616;2022-08-19T03:49:16;17.90;99.90
19561;DHT22;9927;47.792;10.616;2022-08-19T03:51:45;17.80;99.90
19561;DHT22;9927;47.792;10.616;2022-08-19T03:54:15;17.70;99.90
19561;DHT22;9927;47.792;10.616;2022-08-19T03:56:44;17.60;99.90
19561;DHT22;9927;47.792;10.616;2022-08-19T03:59:16;17.60;99.90
19561;DHT22;9927;47.792;10.616;2022-08-19T04:01:44;17.60;99.90
19561;DHT22;9927;47.792;10.616;2022-08-19T04:04:12;17.50;99.90
19561;DHT22;9927;47.792;10.616;2022-08-19T04:06:39;17.50;99.90
19561;DHT22;9927;47.792;10.616;2022-08-19T04:09:09;17.50;99.90
19561;DHT22;9927;47.792;10.616;2022-08-19T04:11:42;17.50;99.90
19561;DHT22;9927;47.792;10.616;2022-08-19T04:14:13;17.50;99.90
19561;DHT22;9927;47.792;10.616;2022-08-19T04:16:42;17.50;99.90
19561;DHT22;9927;47.792;10.616;2022-08-19T04:19:12;17.40;99.90
19561;DHT22;9927;47.792;10.616;2022-08-19T04:21:39;17.40;99.90
19561;DHT22;9927;47.792;10.616;2022-08-19T04:24:08;17.40;99.90
19561;DHT22;9927;47.792;10.616;2022-08-19T04:26:36;17.50;99.90
19561;DHT22;9927;47.792;10.616;2022-08-19T04:29:09;17.50;99.90
19561;DHT22;9927;47.792;10.616;2022-08-19T04:31:39;17.50;99.90
19561;DHT22;9927;47.792;10.616;2022-08-19T04:34:09;17.40;99.90
19561;DHT22;9927;47.792;10.616;2022-08-19T04:36:41;17.40;99.90
19561;DHT22;9927;47.792;10.616;2022-08-19T04:39:11;17.50;99.90
19561;DHT22;9927;47.792;10.616;2022-08-19T04:41:39;17.60;99.90
19561;DHT22;9927;47.792;10.616;2022-08-19T04:44:25;17.60;99.90
19561;DHT22;9927;47.792;10.616;2022-08-19T04:46:53;17.70;99.90
19561;DHT22;9927;47.792;10.616;2022-08-19T04:49:21;17.80;99.90
19561;DHT22;9927;47.792;10.616;2022-08-19T04:51:50;18.00;99.90
19561;DHT22;9927;47.792;10.616;2022-08-19T04:54:23;18.00;99.90
19561;DHT22;9927;47.792;10.616;2022-08-19T04:57:08;18.00;99.90
19561;DHT22;9927;47.792;10.616;2022-08-19T04:59:38;18.10;99.90
19561;DHT22;9927;47.792;10.616;2022-08-19T05:02:08;18.10;99.90
19561;DHT22;9927;47.792;10.616;2022-08-19T05:04:36;18.20;99.90
19561;DHT22;9927;47.792;10.616;2022-08-19T05:07:07;18.30;99.90
19561;DHT22;9927;47.792;10.616;2022-08-19T05:09:35;18.40;99.90
19561;DHT22;9927;47.792;10.616;2022-08-19T05:12:23;18.50;99.90
19561;DHT22;9927;47.792;10.616;2022-08-19T05:14:56;18.70;99.90
19561;DHT22;9927;47.792;10.616;2022-08-19T05:17:27;18.80;99.90
19561;DHT22;9927;47.792;10.616;2022-08-19T05:20:01;18.80;99.90
19561;DHT22;9927;47.792;10.616;2022-08-19T05:22:47;18.90;99.90
19561;DHT22;9927;47.792;10.616;2022-08-19T05:25:20;19.10;99.90
19561;DHT22;9927;47.792;10.616;2022-08-19T05:27:48;19.20;99.90
19561;DHT22;9927;47.792;10.616;2022-08-19T05:30:16;19.40;99.90
19561;DHT22;9927;47.792;10.616;2022-08-19T05:32:44;19.60;99.90
19561;DHT22;9927;47.792;10.616;2022-08-19T05:35:12;19.80;99.90
19561;DHT22;9927;47.792;10.616;2022-08-19T05:37:39;20.00;99.90
19561;DHT22;9927;47.792;10.616;2022-08-19T05:40:08;20.10;99.90
19561;DHT22;9927;47.792;10.616;2022-08-19T05:42:37;20.00;99.90
19561;DHT22;9927;47.792;10.616;2022-08-19T05:45:05;19.90;99.90
19561;DHT22;9927;47.792;10.616;2022-08-19T05:47:32;19.80;99.90
19561;DHT22;9927;47.792;10.616;2022-08-19T05:49:59;19.70;99.90
19561;DHT22;9927;47.792;10.616;2022-08-19T05:52:31;19.60;99.90
19561;DHT22;9927;47.792;10.616;2022-08-19T05:54:59;19.70;99.90
19561;DHT22;9927;47.792;10.616;2022-08-19T05:57:26;19.70;99.90
19561;DHT22;9927;47.792;10.616;2022-08-19T05:59:56;19.70;99.90
19561;DHT22;9927;47.792;10.616;2022-08-19T06:02:26;19.80;99.90
19561;DHT22;9927;47.792;10.616;2022-08-19T06:04:53;19.70;99.90
19561;DHT22;9927;47.792;10.616;2022-08-19T06:07:21;19.50;99.90
19561;DHT22;9927;47.792;10.616;2022-08-19T06:09:48;19.50;99.90
19561;DHT22;9927;47.792;10.616;2022-08-19T06:12:31;19.50;99.90
19561;DHT22;9927;47.792;10.616;2022-08-19T06:15:11;19.50;99.90
19561;DHT22;9927;47.792;10.616;2022-08-19T06:17:39;19.70;99.90
19561;DHT22;9927;47.792;10.616;2022-08-19T06:20:09;19.60;99.90
19561;DHT22;9927;47.792;10.616;2022-08-19T06:22:45;19.60;99.90
19561;DHT22;9927;47.792;10.616;2022-08-19T06:25:13;19.60;99.90
19561;DHT22;9927;47.792;10.616;2022-08-19T06:27:41;19.60;99.90
19561;DHT22;9927;47.792;10.616;2022-08-19T06:30:29;19.70;99.90
19561;DHT22;9927;47.792;10.616;2022-08-19T06:32:56;19.80;99.90
19561;DHT22;9927;47.792;10.616;2022-08-19T06:35:23;19.80;99.90
19561;DHT22;9927;47.792;10.616;2022-08-19T06:37:52;19.80;99.90
19561;DHT22;9927;47.792;10.616;2022-08-19T06:40:19;19.80;99.90
19561;DHT22;9927;47.792;10.616;2022-08-19T06:42:47;19.90;99.90
19561;DHT22;9927;47.792;10.616;2022-08-19T06:45:22;19.70;99.90
19561;DHT22;9927;47.792;10.616;2022-08-19T06:48:00;19.70;99.90
19561;DHT22;9927;47.792;10.616;2022-08-19T06:50:27;19.70;99.90
19561;DHT22;9927;47.792;10.616;2022-08-19T06:52:55;19.80;99.90
19561;DHT22;9927;47.792;10.616;2022-08-19T06:55:22;19.80;99.90
19561;DHT22;9927;47.792;10.616;2022-08-19T06:57:50;19.80;99.90
19561;DHT22;9927;47.792;10.616;2022-08-19T07:00:20;19.90;99.90
19561;DHT22;9927;47.792;10.616;2022-08-19T07:02:48;19.90;99.90
19561;DHT22;9927;47.792;10.616;2022-08-19T07:05:25;19.90;99.90
19561;DHT22;9927;47.792;10.616;2022-08-19T07:07:52;19.90;99.90
19561;DHT22;9927;47.792;10.616;2022-08-19T07:10:24;19.80;99.90
19561;DHT22;9927;47.792;10.616;2022-08-19T07:12:52;19.90;99.90
19561;DHT22;9927;47.792;10.616;2022-08-19T07:15:19;19.80;99.90
19561;DHT22;9927;47.792;10.616;2022-08-19T07:17:48;19.70;99.90
19561;DHT22;9927;47.792;10.616;2022-08-19T07:20:19;19.70;99.90
19561;DHT22;9927;47.792;10.616;2022-08-19T07:22:46;19.80;99.90
19561;DHT22;9927;47.792;10.616;2022-08-19T07:25:14;19.70;99.90
19561;DHT22;9927;47.792;10.616;2022-08-19T07:27:43;19.80;99.90
19561;DHT22;9927;47.792;10.616;2022-08-19T07:30:14;19.90;99.90
19561;DHT22;9927;47.792;10.616;2022-08-19T07:32:42;20.00;99.90
19561;DHT22;9927;47.792;10.616;2022-08-19T07:35:09;19.80;99.90
19561;DHT22;9927;47.792;10.616;2022-08-19T07:37:37;19.70;99.90
19561;DHT22;9927;47.792;10.616;2022-08-19T07:40:06;19.60;99.90
19561;DHT22;9927;47.792;10.616;2022-08-19T07:42:34;19.50;99.90
19561;DHT22;9927;47.792;10.616;2022-08-19T07:45:02;19.50;99.90
19561;DHT22;9927;47.792;10.616;2022-08-19T07:47:29;19.40;99.90
19561;DHT22;9927;47.792;10.616;2022-08-19T07:50:18;19.30;99.90
19561;DHT22;9927;47.792;10.616;2022-08-19T07:52:47;19.40;99.90
19561;DHT22;9927;47.792;10.616;2022-08-19T07:55:19;19.50;99.90
19561;DHT22;9927;47.792;10.616;2022-08-19T07:58:07;19.50;99.90
19561;DHT22;9927;47.792;10.616;2022-08-19T08:00:35;19.50;99.90
19561;DHT22;9927;47.792;10.616;2022-08-19T08:03:02;19.60;99.90
19561;DHT22;9927;47.792;10.616;2022-08-19T08:05:30;19.50;99.90
19561;DHT22;9927;47.792;10.616;2022-08-19T08:08:16;19.50;99.90
19561;DHT22;9927;47.792;10.616;2022-08-19T08:10:59;19.60;99.90
19561;DHT22;9927;47.792;10.616;2022-08-19T08:13:27;19.70;99.90
19561;DHT22;9927;47.792;10.616;2022-08-19T08:15:56;19.70;99.90
19561;DHT22;9927;47.792;10.616;2022-08-19T08:18:24;19.70;99.90
19561;DHT22;9927;47.792;10.616;2022-08-19T08:20:57;19.70;99.90
19561;DHT22;9927;47.792;10.616;2022-08-19T08:23:25;19.80;99.90
19561;DHT22;9927;47.792;10.616;2022-08-19T08:25:56;19.80;99.90
19561;DHT22;9927;47.792;10.616;2022-08-19T08:28:24;20.10;99.90
19561;DHT22;9927;47.792;10.616;2022-08-19T08:30:56;20.40;99.90
19561;DHT22;9927;47.792;10.616;2022-08-19T08:33:26;20.70;99.90
19561;DHT22;9927;47.792;10.616;2022-08-19T08:36:10;20.70;99.90
19561;DHT22;9927;47.792;10.616;2022-08-19T08:38:38;20.90;99.90
19561;DHT22;9927;47.792;10.616;2022-08-19T08:41:27;21.00;99.90
19561;DHT22;9927;47.792;10.616;2022-08-19T08:43:56;21.10;99.90
19561;DHT22;9927;47.792;10.616;2022-08-19T08:46:41;21.20;99.90
19561;DHT22;9927;47.792;10.616;2022-08-19T08:52:13;21.30;99.90
19561;DHT22;9927;47.792;10.616;2022-08-19T08:54:47;21.30;99.90
19561;DHT22;9927;47.792;10.616;2022-08-19T08:57:29;21.20;99.90
19561;DHT22;9927;47.792;10.616;2022-08-19T09:00:12;21.30;99.90
19561;DHT22;9927;47.792;10.616;2022-08-19T09:02:43;21.30;99.90
19561;DHT22;9927;47.792;10.616;2022-08-19T09:05:16;21.30;99.90
19561;DHT22;9927;47.792;10.616;2022-08-19T09:08:03;21.40;99.90
19561;DHT22;9927;47.792;10.616;2022-08-19T09:10:43;21.30;99.90
19561;DHT22;9927;47.792;10.616;2022-08-19T09:13:35;21.10;99.90
19561;DHT22;9927;47.792;10.616;2022-08-19T09:16:15;21.10;99.90
19561;DHT22;9927;47.792;10.616;2022-08-19T09:18:48;20.80;99.90
19561;DHT22;9927;47.792;10.616;2022-08-19T09:21:16;20.70;99.90
19561;DHT22;9927;47.792;10.616;2022-08-19T09:23:43;20.50;99.90
19561;DHT22;9927;47.792;10.616;2022-08-19T09:26:14;20.50;99.90
19561;DHT22;9927;47.792;10.616;2022-08-19T09:28:44;20.50;99.90
19561;DHT22;9927;47.792;10.616;2022-08-19T09:31:20;20.50;99.90
19561;DHT22;9927;47.792;10.616;2022-08-19T09:33:48;20.30;99.90
19561;DHT22;9927;47.792;10.616;2022-08-19T09:36:20;20.20;99.90
19561;DHT22;9927;47.792;10.616;2022-08-19T09:39:01;20.10;99.90
19561;DHT22;9927;47.792;10.616;2022-08-19T09:41:28;19.90;99.90
19561;DHT22;9927;47.792;10.616;2022-08-19T09:43:57;19.90;99.90
19561;DHT22;9927;47.792;10.616;2022-08-19T09:46:27;19.90;99.90
19561;DHT22;9927;47.792;10.616;2022-08-19T09:48:58;19.80;99.90
19561;DHT22;9927;47.792;10.616;2022-08-19T09:51:33;19.80;99.90
19561;DHT22;9927;47.792;10.616;2022-08-19T09:54:02;19.90;99.90
19561;DHT22;9927;47.792;10.616;2022-08-19T09:56:31;19.80;99.90
19561;DHT22;9927;47.792;10.616;2022-08-19T09:59:01;19.70;99.90
19561;DHT22;9927;47.792;10.616;2022-08-19T10:01:31;19.70;99.90
19561;DHT22;9927;47.792;10.616;2022-08-19T10:03:59;19.70;99.90
19561;DHT22;9927;47.792;10.616;2022-08-19T10:06:37;19.80;99.90
19561;DHT22;9927;47.792;10.616;2022-08-19T10:09:15;19.70;99.90
19561;DHT22;9927;47.792;10.616;2022-08-19T10:11:52;19.70;99.90
19561;DHT22;9927;47.792;10.616;2022-08-19T10:14:21;19.70;99.90
19561;DHT22;9927;47.792;10.616;2022-08-19T10:16:50;19.80;99.90
19561;DHT22;9927;47.792;10.616;2022-08-19T10:19:19;19.80;99.90
19561;DHT22;9927;47.792;10.616;2022-08-19T10:21:53;19.70;99.90
19561;DHT22;9927;47.792;10.616;2022-08-19T10:24:26;19.80;99.90
19561;DHT22;9927;47.792;10.616;2022-08-19T10:26:55;19.80;99.90
19561;DHT22;9927;47.792;10.616;2022-08-19T10:29:27;19.80;99.90
19561;DHT22;9927;47.792;10.616;2022-08-19T10:32:04;19.70;99.90
19561;DHT22;9927;47.792;10.616;2022-08-19T10:34:37;19.70;99.90
19561;DHT22;9927;47.792;10.616;2022-08-19T10:37:16;19.70;99.90
19561;DHT22;9927;47.792;10.616;2022-08-19T10:39:57;19.80;99.90
19561;DHT22;9927;47.792;10.616;2022-08-19T10:42:24;19.70;99.90
19561;DHT22;9927;47.792;10.616;2022-08-19T10:44:52;19.70;99.90
19561;DHT22;9927;47.792;10.616;2022-08-19T10:47:19;19.70;99.90
19561;DHT22;9927;47.792;10.616;2022-08-19T10:49:53;19.70;99.90
19561;DHT22;9927;47.792;10.616;2022-08-19T10:52:41;19.70;99.90
19561;DHT22;9927;47.792;10.616;2022-08-19T10:55:21;19.70;99.90
19561;DHT22;9927;47.792;10.616;2022-08-19T10:58:15;19.70;99.90
19561;DHT22;9927;47.792;10.616;2022-08-19T11:00:50;19.60;99.90
19561;DHT22;9927;47.792;10.616;2022-08-19T11:03:17;19.50;99.90
19561;DHT22;9927;47.792;10.616;2022-08-19T11:05:45;19.60;99.90
19561;DHT22;9927;47.792;10.616;2022-08-19T11:08:12;19.60;99.90
19561;DHT22;9927;47.792;10.616;2022-08-19T11:10:48;19.60;99.90
19561;DHT22;9927;47.792;10.616;2022-08-19T11:13:16;19.50;99.90
19561;DHT22;9927;47.792;10.616;2022-08-19T11:15:43;19.50;99.90
19561;DHT22;9927;47.792;10.616;2022-08-19T11:18:12;19.50;99.90
19561;DHT22;9927;47.792;10.616;2022-08-19T11:20:40;19.60;99.90
19561;DHT22;9927;47.792;10.616;2022-08-19T11:23:07;19.50;99.90
19561;DHT22;9927;47.792;10.616;2022-08-19T11:25:34;19.50;99.90
19561;DHT22;9927;47.792;10.616;2022-08-19T11:28:04;19.40;99.90
19561;DHT22;9927;47.792;10.616;2022-08-19T11:30:32;19.50;99.90
19561;DHT22;9927;47.792;10.616;2022-08-19T11:33:00;19.50;99.90
19561;DHT22;9927;47.792;10.616;2022-08-19T11:35:27;19.60;99.90
19561;DHT22;9927;47.792;10.616;2022-08-19T11:37:55;19.60;99.90
19561;DHT22;9927;47.792;10.616;2022-08-19T11:40:24;19.50;99.90
19561;DHT22;9927;47.792;10.616;2022-08-19T11:42:52;19.70;99.90
19561;DHT22;9927;47.792;10.616;2022-08-19T11:45:27;19.80;99.90
19561;DHT22;9927;47.792;10.616;2022-08-19T11:47:56;20.00;99.90
19561;DHT22;9927;47.792;10.616;2022-08-19T11:50:24;20.00;99.90
19561;DHT22;9927;47.792;10.616;2022-08-19T11:52:56;20.10;99.90
19561;DHT22;9927;47.792;10.616;2022-08-19T11:55:23;20.10;99.90
19561;DHT22;9927;47.792;10.616;2022-08-19T11:57:50;20.20;99.90
19561;DHT22;9927;47.792;10.616;2022-08-19T12:00:18;20.10;99.90
19561;DHT22;9927;47.792;10.616;2022-08-19T12:02:45;20.10;99.90
19561;DHT22;9927;47.792;10.616;2022-08-19T12:05:12;19.90;99.90
19561;DHT22;9927;47.792;10.616;2022-08-19T12:07:40;19.80;99.90
19561;DHT22;9927;47.792;10.616;2022-08-19T12:10:08;19.90;99.90
19561;DHT22;9927;47.792;10.616;2022-08-19T12:12:37;20.00;99.90
19561;DHT22;9927;47.792;10.616;2022-08-19T12:15:10;20.10;99.90
19561;DHT22;9927;47.792;10.616;2022-08-19T12:17:38;20.20;99.90
19561;DHT22;9927;47.792;10.616;2022-08-19T12:20:06;20.30;99.90
19561;DHT22;9927;47.792;10.616;2022-08-19T12:22:35;20.40;99.90
19561;DHT22;9927;47.792;10.616;2022-08-19T12:25:04;20.50;99.90
19561;DHT22;9927;47.792;10.616;2022-08-19T12:27:31;20.40;99.90
19561;DHT22;9927;47.792;10.616;2022-08-19T12:30:10;20.40;99.90
19561;DHT22;9927;47.792;10.616;2022-08-19T12:32:38;20.30;99.90
19561;DHT22;9927;47.792;10.616;2022-08-19T12:35:06;20.30;99.90
19561;DHT22;9927;47.792;10.616;2022-08-19T12:37:36;20.30;99.90
19561;DHT22;9927;47.792;10.616;2022-08-19T12:40:04;20.20;99.90
19561;DHT22;9927;47.792;10.616;2022-08-19T12:42:31;20.10;99.90
19561;DHT22;9927;47.792;10.616;2022-08-19T12:44:58;20.10;99.90
19561;DHT22;9927;47.792;10.616;2022-08-19T12:47:26;20.10;99.90
19561;DHT22;9927;47.792;10.616;2022-08-19T12:49:53;20.10;99.90
19561;DHT22;9927;47.792;10.616;2022-08-19T12:52:23;20.10;99.90
19561;DHT22;9927;47.792;10.616;2022-08-19T12:54:53;20.10;99.90
19561;DHT22;9927;47.792;10.616;2022-08-19T12:57:28;20.10;99.90
19561;DHT22;9927;47.792;10.616;2022-08-19T13:00:09;20.20;99.90
19561;DHT22;9927;47.792;10.616;2022-08-19T13:02:39;20.10;99.90
19561;DHT22;9927;47.792;10.616;2022-08-19T13:05:09;20.10;99.90
19561;DHT22;9927;47.792;10.616;2022-08-19T13:07:39;20.00;99.90
19561;DHT22;9927;47.792;10.616;2022-08-19T13:10:08;20.00;99.90
19561;DHT22;9927;47.792;10.616;2022-08-19T13:12:36;20.00;99.90
19561;DHT22;9927;47.792;10.616;2022-08-19T13:15:05;20.10;99.90
19561;DHT22;9927;47.792;10.616;2022-08-19T13:17:38;20.20;99.90
19561;DHT22;9927;47.792;10.616;2022-08-19T13:20:09;20.30;99.90
19561;DHT22;9927;47.792;10.616;2022-08-19T13:22:37;20.40;99.90
19561;DHT22;9927;47.792;10.616;2022-08-19T13:25:06;20.50;99.90
19561;DHT22;9927;47.792;10.616;2022-08-19T13:27:35;20.70;99.90
19561;DHT22;9927;47.792;10.616;2022-08-19T13:30:03;21.00;99.90
19561;DHT22;9927;47.792;10.616;2022-08-19T13:32:50;21.30;99.90
19561;DHT22;9927;47.792;10.616;2022-08-19T13:35:58;21.60;99.90
19561;DHT22;9927;47.792;10.616;2022-08-19T13:38:23;21.80;99.90
19561;DHT22;9927;47.792;10.616;2022-08-19T13:40:52;22.00;99.90
19561;DHT22;9927;47.792;10.616;2022-08-19T13:43:22;22.20;99.90
19561;DHT22;9927;47.792;10.616;2022-08-19T13:45:54;22.20;99.90
19561;DHT22;9927;47.792;10.616;2022-08-19T13:48:25;22.40;99.90
19561;DHT22;9927;47.792;10.616;2022-08-19T13:50:54;22.40;99.90
19561;DHT22;9927;47.792;10.616;2022-08-19T13:53:22;22.40;99.90
19561;DHT22;9927;47.792;10.616;2022-08-19T13:55:50;22.40;99.90
19561;DHT22;9927;47.792;10.616;2022-08-19T13:58:18;22.70;99.90
19561;DHT22;9927;47.792;10.616;2022-08-19T14:00:46;22.70;99.90
19561;DHT22;9927;47.792;10.616;2022-08-19T14:03:13;22.60;99.90
19561;DHT22;9927;47.792;10.616;2022-08-19T14:05:41;22.70;99.90
19561;DHT22;9927;47.792;10.616;2022-08-19T14:08:08;22.70;99.90
19561;DHT22;9927;47.792;10.616;2022-08-19T14:10:36;22.80;99.90
19561;DHT22;9927;47.792;10.616;2022-08-19T14:13:03;22.90;99.90
19561;DHT22;9927;47.792;10.616;2022-08-19T14:15:31;22.90;99.90
19561;DHT22;9927;47.792;10.616;2022-08-19T14:17:58;22.70;99.90
19561;DHT22;9927;47.792;10.616;2022-08-19T14:20:27;22.70;99.90
19561;DHT22;9927;47.792;10.616;2022-08-19T14:22:54;22.60;99.90
19561;DHT22;9927;47.792;10.616;2022-08-19T14:25:24;22.60;99.90
19561;DHT22;9927;47.792;10.616;2022-08-19T14:27:52;22.50;99.90
19561;DHT22;9927;47.792;10.616;2022-08-19T14:30:29;22.30;99.90
19561;DHT22;9927;47.792;10.616;2022-08-19T14:32:58;22.30;99.90
19561;DHT22;9927;47.792;10.616;2022-08-19T14:35:27;22.30;99.90
19561;DHT22;9927;47.792;10.616;2022-08-19T14:37:55;22.40;99.90
19561;DHT22;9927;47.792;10.616;2022-08-19T14:40:25;22.50;99.90
19561;DHT22;9927;47.792;10.616;2022-08-19T14:42:55;22.70;99.90
19561;DHT22;9927;47.792;10.616;2022-08-19T14:45:27;22.80;99.90
19561;DHT22;9927;47.792;10.616;2022-08-19T14:47:55;22.80;99.90
19561;DHT22;9927;47.792;10.616;2022-08-19T14:50:22;22.70;99.90
19561;DHT22;9927;47.792;10.616;2022-08-19T14:52:50;22.60;99.90
19561;DHT22;9927;47.792;10.616;2022-08-19T14:55:25;22.70;99.90
19561;DHT22;9927;47.792;10.616;2022-08-19T14:57:52;22.60;99.90
19561;DHT22;9927;47.792;10.616;2022-08-19T15:00:20;22.60;99.90
19561;DHT22;9927;47.792;10.616;2022-08-19T15:02:47;22.50;99.90
19561;DHT22;9927;47.792;10.616;2022-08-19T15:05:14;22.50;99.90
19561;DHT22;9927;47.792;10.616;2022-08-19T15:07:42;22.50;99.90
19561;DHT22;9927;47.792;10.616;2022-08-19T15:10:12;22.60;99.90
19561;DHT22;9927;47.792;10.616;2022-08-19T15:12:40;22.70;99.90
19561;DHT22;9927;47.792;10.616;2022-08-19T15:15:11;22.70;99.90
19561;DHT22;9927;47.792;10.616;2022-08-19T15:17:44;22.70;99.90
19561;DHT22;9927;47.792;10.616;2022-08-19T15:20:17;22.80;99.90
19561;DHT22;9927;47.792;10.616;2022-08-19T15:22:45;22.50;99.90
19561;DHT22;9927;47.792;10.616;2022-08-19T15:25:14;22.50;99.90
19561;DHT22;9927;47.792;10.616;2022-08-19T15:27:42;22.50;99.90
19561;DHT22;9927;47.792;10.616;2022-08-19T15:30:11;22.10;99.90
19561;DHT22;9927;47.792;10.616;2022-08-19T15:32:38;21.90;99.90
19561;DHT22;9927;47.792;10.616;2022-08-19T15:35:06;21.80;99.90
19561;DHT22;9927;47.792;10.616;2022-08-19T15:37:34;21.70;99.90
19561;DHT22;9927;47.792;10.616;2022-08-19T15:40:05;21.70;99.90
19561;DHT22;9927;47.792;10.616;2022-08-19T15:42:35;21.50;99.90
19561;DHT22;9927;47.792;10.616;2022-08-19T15:45:08;21.40;99.90
19561;DHT22;9927;47.792;10.616;2022-08-19T15:47:36;21.40;99.90
19561;DHT22;9927;47.792;10.616;2022-08-19T15:50:10;21.30;99.90
19561;DHT22;9927;47.792;10.616;2022-08-19T15:52:55;21.20;99.90
19561;DHT22;9927;47.792;10.616;2022-08-19T15:55:26;20.80;99.90
19561;DHT22;9927;47.792;10.616;2022-08-19T15:58:06;20.80;99.90
19561;DHT22;9927;47.792;10.616;2022-08-19T16:00:57;20.60;99.90
19561;DHT22;9927;47.792;10.616;2022-08-19T16:03:50;20.70;99.90
19561;DHT22;9927;47.792;10.616;2022-08-19T16:06:43;20.60;99.90
19561;DHT22;9927;47.792;10.616;2022-08-19T16:09:11;20.60;99.90
19561;DHT22;9927;47.792;10.616;2022-08-19T16:11:39;20.60;99.90
19561;DHT22;9927;47.792;10.616;2022-08-19T16:14:14;20.50;99.90
19561;DHT22;9927;47.792;10.616;2022-08-19T16:16:41;20.40;99.90
19561;DHT22;9927;47.792;10.616;2022-08-19T16:19:10;20.40;99.90
19561;DHT22;9927;47.792;10.616;2022-08-19T16:21:38;20.30;99.90
19561;DHT22;9927;47.792;10.616;2022-08-19T16:24:11;20.20;99.90
19561;DHT22;9927;47.792;10.616;2022-08-19T16:26:40;20.10;99.90
19561;DHT22;9927;47.792;10.616;2022-08-19T16:29:08;20.00;99.90
19561;DHT22;9927;47.792;10.616;2022-08-19T16:31:41;19.90;99.90
19561;DHT22;9927;47.792;10.616;2022-08-19T16:34:10;19.80;99.90
19561;DHT22;9927;47.792;10.616;2022-08-19T16:36:38;19.60;99.90
19561;DHT22;9927;47.792;10.616;2022-08-19T16:39:12;19.70;99.90
19561;DHT22;9927;47.792;10.616;2022-08-19T16:41:41;19.60;99.90
19561;DHT22;9927;47.792;10.616;2022-08-19T16:44:12;19.50;99.90
19561;DHT22;9927;47.792;10.616;2022-08-19T16:46:40;19.50;99.90
19561;DHT22;9927;47.792;10.616;2022-08-19T16:49:11;19.40;99.90
19561;DHT22;9927;47.792;10.616;2022-08-19T16:51:38;19.40;99.90
19561;DHT22;9927;47.792;10.616;2022-08-19T16:54:05;19.50;99.90
19561;DHT22;9927;47.792;10.616;2022-08-19T16:56:33;19.50;99.90
19561;DHT22;9927;47.792;10.616;2022-08-19T16:59:01;19.40;99.90
19561;DHT22;9927;47.792;10.616;2022-08-19T17:01:28;19.40;99.90
19561;DHT22;9927;47.792;10.616;2022-08-19T17:03:56;19.40;99.90
19561;DHT22;9927;47.792;10.616;2022-08-19T17:06:25;19.40;99.90
19561;DHT22;9927;47.792;10.616;2022-08-19T17:08:56;19.20;99.90
19561;DHT22;9927;47.792;10.616;2022-08-19T17:11:26;19.10;99.90
19561;DHT22;9927;47.792;10.616;2022-08-19T17:13:54;19.00;99.90
19561;DHT22;9927;47.792;10.616;2022-08-19T17:16:27;19.00;99.90
19561;DHT22;9927;47.792;10.616;2022-08-19T17:18:56;19.00;99.90
19561;DHT22;9927;47.792;10.616;2022-08-19T17:21:27;18.90;99.90
19561;DHT22;9927;47.792;10.616;2022-08-19T17:23:55;18.90;99.90
19561;DHT22;9927;47.792;10.616;2022-08-19T17:26:23;18.90;99.90
19561;DHT22;9927;47.792;10.616;2022-08-19T17:28:52;18.90;99.90
19561;DHT22;9927;47.792;10.616;2022-08-19T17:31:22;18.70;99.90
19561;DHT22;9927;47.792;10.616;2022-08-19T17:33:50;18.70;99.90
19561;DHT22;9927;47.792;10.616;2022-08-19T17:36:22;18.70;99.90
19561;DHT22;9927;47.792;10.616;2022-08-19T17:38:50;18.80;99.90
19561;DHT22;9927;47.792;10.616;2022-08-19T17:41:18;18.70;99.90
19561;DHT22;9927;47.792;10.616;2022-08-19T17:43:45;18.60;99.90
19561;DHT22;9927;47.792;10.616;2022-08-19T17:46:13;18.50;99.90
19561;DHT22;9927;47.792;10.616;2022-08-19T17:48:48;18.10;99.90
19561;DHT22;9927;47.792;10.616;2022-08-19T17:53:59;17.70;99.90
19561;DHT22;9927;47.792;10.616;2022-08-19T17:56:26;17.60;99.90
19561;DHT22;9927;47.792;10.616;2022-08-19T17:58:54;17.50;99.90
19561;DHT22;9927;47.792;10.616;2022-08-19T18:01:28;17.50;99.90
19561;DHT22;9927;47.792;10.616;2022-08-19T18:04:15;17.50;99.90
19561;DHT22;9927;47.792;10.616;2022-08-19T18:06:43;17.60;99.90
19561;DHT22;9927;47.792;10.616;2022-08-19T18:09:27;17.70;99.90
19561;DHT22;9927;47.792;10.616;2022-08-19T18:12:12;17.70;99.90
19561;DHT22;9927;47.792;10.616;2022-08-19T18:14:40;17.80;99.90
19561;DHT22;9927;47.792;10.616;2022-08-19T18:17:12;17.80;99.90
19561;DHT22;9927;47.792;10.616;2022-08-19T18:19:41;17.80;99.90
19561;DHT22;9927;47.792;10.616;2022-08-19T18:22:31;17.80;99.90
19561;DHT22;9927;47.792;10.616;2022-08-19T18:25:11;17.80;99.90
19561;DHT22;9927;47.792;10.616;2022-08-19T18:27:38;17.80;99.90
19561;DHT22;9927;47.792;10.616;2022-08-19T18:30:06;17.80;99.90
19561;DHT22;9927;47.792;10.616;2022-08-19T18:32:36;17.80;99.90
19561;DHT22;9927;47.792;10.616;2022-08-19T18:35:10;17.80;99.90
19561;DHT22;9927;47.792;10.616;2022-08-19T18:37:39;17.80;99.90
19561;DHT22;9927;47.792;10.616;2022-08-19T18:40:09;17.70;99.90
19561;DHT22;9927;47.792;10.616;2022-08-19T18:42:55;17.70;99.90
19561;DHT22;9927;47.792;10.616;2022-08-19T18:45:41;17.70;99.90
19561;DHT22;9927;47.792;10.616;2022-08-19T18:48:27;17.60;99.90
19561;DHT22;9927;47.792;10.616;2022-08-19T18:51:14;17.70;99.90
19561;DHT22;9927;47.792;10.616;2022-08-19T18:53:44;17.80;99.90
19561;DHT22;9927;47.792;10.616;2022-08-19T18:56:14;17.70;99.90
19561;DHT22;9927;47.792;10.616;2022-08-19T18:58:43;17.80;99.90
19561;DHT22;9927;47.792;10.616;2022-08-19T19:01:17;17.80;99.90